Time;durP1;ratioP1;P1;durP2;ratioP2;P2;SDS_P1;SDS_P2;PMS_P1;PMS_P2;Temp;Humidity;BMP_temperature;BMP_pressure;BME280_temperature;BME280_humidity;BME280_pressure;Samples;Min_cycle;Max_cycle;Signal;HPM_P1;HPM_P2
2021/09/08 00:01:07;;;;;;;18.47;16.37;;;16.40;99.90;;;;;;4976033;28;20247;-64
2021/09/08 00:03:32;;;;;;;19.40;15.57;;;16.50;99.90;;;;;;4976329;28;20650;-64
2021/09/08 00:05:58;;;;;;;31.67;17.90;;;16.50;99.90;;;;;;4976050;28;20200;-64
2021/09/08 00:08:24;;;;;;;17.47;15.77;;;16.40;99.90;;;;;;4976306;28;20559;-64
2021/09/08 00:10:50;;;;;;;19.80;16.40;;;16.30;99.90;;;;;;4976525;28;20187;-64
2021/09/08 00:13:15;;;;;;;18.57;16.87;;;16.20;99.90;;;;;;4975154;28;20661;-64
2021/09/08 00:15:41;;;;;;;16.93;15.33;;;16.30;99.90;;;;;;4976108;28;20184;-64
2021/09/08 00:18:06;;;;;;;19.07;17.20;;;16.20;99.90;;;;;;4975859;28;20204;-64
2021/09/08 00:20:32;;;;;;;21.97;19.40;;;16.30;99.90;;;;;;4975679;28;20247;-64
2021/09/08 00:22:57;;;;;;;19.70;17.80;;;16.20;99.90;;;;;;4976282;28;20176;-64
2021/09/08 00:25:23;;;;;;;21.13;18.27;;;16.20;99.90;;;;;;4975172;28;20188;-64
2021/09/08 00:27:48;;;;;;;18.77;16.77;;;16.20;99.90;;;;;;4974675;28;20194;-64
2021/09/08 00:30:14;;;;;;;20.17;18.10;;;16.10;99.90;;;;;;4975529;28;20196;-64
2021/09/08 00:32:40;;;;;;;20.80;18.70;;;16.10;99.90;;;;;;4976196;28;20219;-64
2021/09/08 00:35:07;;;;;;;19.93;17.87;;;16.10;99.90;;;;;;4975567;28;20196;-64
2021/09/08 00:37:32;;;;;;;24.33;19.90;;;16.10;99.90;;;;;;4976046;28;20917;-64
2021/09/08 00:39:58;;;;;;;19.90;17.80;;;16.20;99.90;;;;;;4975273;28;20501;-64
2021/09/08 00:42:23;;;;;;;19.20;17.30;;;16.10;99.90;;;;;;4975206;28;20173;-64
2021/09/08 00:44:49;;;;;;;18.87;17.00;;;16.10;99.90;;;;;;4975505;28;20172;-64
2021/09/08 00:47:16;;;;;;;19.40;17.53;;;16.10;99.90;;;;;;4970602;28;20204;-64
2021/09/08 00:49:44;;;;;;;19.80;17.80;;;16.00;99.90;;;;;;4964275;28;20572;-64
2021/09/08 00:52:12;;;;;;;19.33;17.33;;;16.10;99.90;;;;;;4975460;28;20448;-64
2021/09/08 00:54:38;;;;;;;20.03;18.03;;;16.00;99.90;;;;;;4975529;28;20432;-64
2021/09/08 00:57:06;;;;;;;18.80;17.20;;;16.00;99.90;;;;;;4975835;28;20432;-64
2021/09/08 00:59:34;;;;;;;19.03;17.13;;;16.00;99.90;;;;;;4974392;28;20513;-64
2021/09/08 01:02:04;;;;;;;18.23;16.43;;;15.90;99.90;;;;;;4975217;28;20478;-64
2021/09/08 01:04:30;;;;;;;19.23;17.43;;;15.90;99.90;;;;;;4975151;28;20435;-64
2021/09/08 01:07:00;;;;;;;17.50;15.93;;;15.90;99.90;;;;;;4975071;28;20880;-64
2021/09/08 01:09:27;;;;;;;18.67;16.77;;;15.70;99.90;;;;;;4974789;28;20455;-64
2021/09/08 01:11:53;;;;;;;19.27;17.37;;;15.70;99.90;;;;;;4975523;28;20470;-64
2021/09/08 01:14:19;;;;;;;19.30;17.50;;;15.70;99.90;;;;;;4974540;28;20949;-64
2021/09/08 01:16:49;;;;;;;19.27;17.27;;;15.60;99.90;;;;;;4975224;28;20557;-64
2021/09/08 01:19:14;;;;;;;20.40;17.63;;;15.70;99.90;;;;;;4973980;28;20671;-64
2021/09/08 01:21:40;;;;;;;19.83;17.87;;;15.70;99.90;;;;;;4975250;28;20759;-64
2021/09/08 01:24:07;;;;;;;17.47;15.87;;;15.70;99.90;;;;;;4975339;28;20224;-64
2021/09/08 01:26:38;;;;;;;20.33;18.53;;;15.60;99.90;;;;;;4974748;28;20220;-64
2021/09/08 01:29:04;;;;;;;17.83;16.13;;;15.50;99.90;;;;;;4974422;28;20460;-64
2021/09/08 01:31:30;;;;;;;19.50;17.07;;;15.60;99.90;;;;;;4974720;28;20443;-64
2021/09/08 01:33:56;;;;;;;20.50;18.70;;;15.60;99.90;;;;;;4973803;28;20451;-64
2021/09/08 01:36:21;;;;;;;21.23;19.10;;;15.40;99.90;;;;;;4974994;28;20417;-64
2021/09/08 01:38:47;;;;;;;21.77;19.47;;;15.50;99.90;;;;;;4974615;28;20870;-64
2021/09/08 01:41:12;;;;;;;20.43;18.37;;;15.40;99.90;;;;;;4974980;28;20223;-64
2021/09/08 01:43:38;;;;;;;22.77;17.87;;;15.40;99.90;;;;;;4974464;28;20708;-64
2021/09/08 01:46:04;;;;;;;19.87;17.90;;;15.40;99.90;;;;;;4974349;28;20674;-64
2021/09/08 01:48:29;;;;;;;20.90;18.90;;;15.30;99.90;;;;;;4973597;28;20651;-64
2021/09/08 01:50:55;;;;;;;21.80;19.07;;;15.30;99.90;;;;;;4974049;28;20215;-64
2021/09/08 01:53:22;;;;;;;22.23;18.93;;;15.20;99.90;;;;;;4973902;28;20183;-64
2021/09/08 01:55:48;;;;;;;19.93;17.80;;;15.20;99.90;;;;;;4974261;28;20502;-64
2021/09/08 01:58:14;;;;;;;21.70;19.70;;;15.20;99.90;;;;;;4973930;28;20451;-64
2021/09/08 02:00:39;;;;;;;21.57;19.33;;;15.20;99.90;;;;;;4973979;28;20283;-64
2021/09/08 02:03:05;;;;;;;21.37;19.23;;;15.30;99.90;;;;;;4974083;28;20188;-64
2021/09/08 02:05:30;;;;;;;20.97;18.77;;;15.20;99.90;;;;;;4973563;28;20208;-64
2021/09/08 02:07:56;;;;;;;24.10;21.70;;;15.20;99.90;;;;;;4973851;28;20179;-64
2021/09/08 02:10:21;;;;;;;22.40;20.03;;;15.20;99.90;;;;;;4974217;28;20630;-64
2021/09/08 02:12:47;;;;;;;21.30;19.20;;;15.10;99.90;;;;;;4973818;28;20173;-64
2021/09/08 02:15:13;;;;;;;23.90;18.23;;;15.10;99.90;;;;;;4974283;28;20184;-64
2021/09/08 02:17:38;;;;;;;22.23;19.70;;;15.20;99.90;;;;;;4973827;28;20188;-64
2021/09/08 02:20:05;;;;;;;20.00;18.10;;;15.00;99.90;;;;;;4973338;28;20471;-64
2021/09/08 02:22:30;;;;;;;21.40;19.20;;;15.00;99.90;;;;;;4974273;28;20211;-64
2021/09/08 02:24:56;;;;;;;19.83;18.03;;;15.00;99.90;;;;;;4973755;28;20979;-64
2021/09/08 02:27:24;;;;;;;31.50;21.27;;;15.00;99.90;;;;;;4973592;28;20202;-64
2021/09/08 02:29:50;;;;;;;21.63;19.40;;;14.90;99.90;;;;;;4973659;28;20948;-64
2021/09/08 02:32:15;;;;;;;19.27;17.33;;;15.00;99.90;;;;;;4974172;28;20506;-64
2021/09/08 02:34:41;;;;;;;18.87;17.00;;;15.00;99.90;;;;;;4974099;28;20212;-64
2021/09/08 02:37:06;;;;;;;20.20;18.10;;;15.00;99.90;;;;;;4973495;28;20536;-64
2021/09/08 02:39:34;;;;;;;19.60;17.60;;;15.00;99.90;;;;;;4973598;28;20247;-64
2021/09/08 02:41:59;;;;;;;19.23;17.27;;;15.00;99.90;;;;;;4973339;28;20176;-64
2021/09/08 02:44:25;;;;;;;19.57;17.57;;;14.90;99.90;;;;;;4971834;28;20987;-64
2021/09/08 02:46:50;;;;;;;22.73;20.57;;;14.90;99.90;;;;;;4972182;28;20196;-64
2021/09/08 02:49:17;;;;;;;21.57;19.23;;;14.90;99.90;;;;;;4972626;28;20188;-64
2021/09/08 02:51:43;;;;;;;20.67;18.50;;;14.80;99.90;;;;;;4972889;28;20179;-64
2021/09/08 02:54:08;;;;;;;19.10;17.13;;;14.70;99.90;;;;;;4973245;28;20435;-64
2021/09/08 02:56:34;;;;;;;21.33;19.23;;;14.60;99.90;;;;;;4972707;28;20255;-64
2021/09/08 02:58:59;;;;;;;21.43;19.23;;;14.60;99.90;;;;;;4973328;28;20200;-64
2021/09/08 03:01:25;;;;;;;22.73;20.23;;;14.70;99.90;;;;;;4973123;28;20230;-64
2021/09/08 03:03:50;;;;;;;19.00;17.07;;;14.70;99.90;;;;;;4973351;28;20183;-64
2021/09/08 03:06:16;;;;;;;22.07;19.73;;;14.60;99.90;;;;;;4973343;28;20196;-64
2021/09/08 03:08:41;;;;;;;21.50;19.27;;;14.60;99.90;;;;;;4973029;28;20199;-64
2021/09/08 03:11:07;;;;;;;22.40;20.30;;;14.50;99.90;;;;;;4972750;28;20472;-63
2021/09/08 03:13:33;;;;;;;21.77;19.53;;;14.50;99.90;;;;;;4972850;28;20260;-64
2021/09/08 03:15:58;;;;;;;23.17;20.23;;;14.50;99.90;;;;;;4973458;28;20187;-64
2021/09/08 03:18:24;;;;;;;21.97;19.70;;;14.40;99.90;;;;;;4971792;28;20216;-64
2021/09/08 03:20:49;;;;;;;21.33;18.93;;;14.30;99.90;;;;;;4972394;28;20654;-64
2021/09/08 03:23:15;;;;;;;21.90;19.60;;;14.30;99.90;;;;;;4973634;28;20172;-64
2021/09/08 03:25:40;;;;;;;22.33;19.93;;;14.30;99.90;;;;;;4972758;28;20200;-64
2021/09/08 03:28:08;;;;;;;21.33;19.23;;;14.30;99.90;;;;;;4972360;28;20200;-64
2021/09/08 03:30:34;;;;;;;20.87;18.80;;;14.30;99.90;;;;;;4973162;28;20543;-64
2021/09/08 03:33:01;;;;;;;22.27;19.83;;;14.30;99.90;;;;;;4972830;28;20495;-64
2021/09/08 03:35:26;;;;;;;21.83;19.53;;;14.30;99.90;;;;;;4972815;28;20442;-64
2021/09/08 03:37:52;;;;;;;21.20;18.97;;;14.30;99.90;;;;;;4972240;28;20440;-64
2021/09/08 03:40:17;;;;;;;22.23;20.07;;;14.30;99.90;;;;;;4972856;28;20176;-64
2021/09/08 03:42:44;;;;;;;22.67;20.23;;;14.30;99.90;;;;;;4972737;28;20180;-64
2021/09/08 03:45:10;;;;;;;23.37;20.90;;;14.30;99.90;;;;;;4973075;28;20253;-64
2021/09/08 03:47:36;;;;;;;21.67;19.40;;;14.30;99.90;;;;;;4972395;28;20436;-64
2021/09/08 03:50:03;;;;;;;25.17;20.77;;;14.30;99.90;;;;;;4972673;28;20439;-64
2021/09/08 03:52:28;;;;;;;21.87;19.67;;;14.20;99.90;;;;;;4972535;28;20435;-64
2021/09/08 03:54:54;;;;;;;22.87;20.10;;;14.20;99.90;;;;;;4972438;28;20446;-64
2021/09/08 03:57:19;;;;;;;21.57;19.37;;;14.10;99.90;;;;;;4972538;28;20231;-64
2021/09/08 03:59:45;;;;;;;22.40;20.10;;;14.20;99.90;;;;;;4972561;28;20279;-64
2021/09/08 04:02:10;;;;;;;21.77;19.47;;;14.20;99.90;;;;;;4972530;28;20534;-64
2021/09/08 04:04:36;;;;;;;24.10;21.60;;;14.10;99.90;;;;;;4971710;28;20184;-64
2021/09/08 04:07:01;;;;;;;23.33;21.03;;;14.20;99.90;;;;;;4971990;28;20204;-64
2021/09/08 04:09:27;;;;;;;24.73;22.13;;;14.20;99.90;;;;;;4971868;28;20184;-64
2021/09/08 04:11:52;;;;;;;23.83;21.53;;;14.20;99.90;;;;;;4972241;28;20216;-64
2021/09/08 04:14:18;;;;;;;22.80;20.50;;;14.20;99.90;;;;;;4972134;28;20528;-64
2021/09/08 04:16:43;;;;;;;22.20;19.97;;;14.20;99.90;;;;;;4972442;28;20189;-64
2021/09/08 04:19:09;;;;;;;23.70;21.20;;;14.10;99.90;;;;;;4972713;28;20681;-64
2021/09/08 04:21:34;;;;;;;26.17;20.20;;;14.20;99.90;;;;;;4972110;28;20172;-64
2021/09/08 04:24:00;;;;;;;22.43;20.23;;;14.00;99.90;;;;;;4972730;28;20168;-64
2021/09/08 04:26:26;;;;;;;21.17;19.17;;;14.00;99.90;;;;;;4972249;28;20200;-64
2021/09/08 04:28:52;;;;;;;22.57;20.47;;;14.00;99.90;;;;;;4972273;28;20505;-64
2021/09/08 04:31:17;;;;;;;25.53;22.60;;;14.00;99.90;;;;;;4973979;28;20183;-64
2021/09/08 04:33:43;;;;;;;23.77;21.37;;;13.90;99.90;;;;;;4975518;28;20188;-64
2021/09/08 04:36:09;;;;;;;21.27;19.10;;;13.90;99.90;;;;;;4975738;28;20275;-64
2021/09/08 04:38:35;;;;;;;22.20;20.03;;;13.80;99.90;;;;;;4975716;28;20196;-64
2021/09/08 04:41:01;;;;;;;22.03;19.87;;;13.80;99.90;;;;;;4976042;28;20267;-64
2021/09/08 04:43:26;;;;;;;25.13;22.73;;;13.90;99.90;;;;;;4975202;28;20876;-64
2021/09/08 04:45:52;;;;;;;25.30;21.57;;;13.80;99.90;;;;;;4975876;28;20204;-64
2021/09/08 04:48:17;;;;;;;27.33;21.00;;;13.80;99.90;;;;;;4974561;28;20192;-64
2021/09/08 04:50:43;;;;;;;24.73;22.37;;;13.80;99.90;;;;;;4974010;28;20263;-63
2021/09/08 04:53:09;;;;;;;24.17;20.13;;;13.80;99.90;;;;;;4975617;28;20181;-64
2021/09/08 04:55:35;;;;;;;25.40;21.83;;;13.90;99.90;;;;;;4975691;28;20175;-64
2021/09/08 04:58:00;;;;;;;22.93;20.53;;;13.90;99.90;;;;;;4970989;28;20208;-64
2021/09/08 05:00:26;;;;;;;24.77;21.90;;;13.90;99.90;;;;;;4956156;28;20452;-64
2021/09/08 05:02:51;;;;;;;23.93;21.53;;;13.90;99.90;;;;;;4956286;28;20265;-64
2021/09/08 05:05:17;;;;;;;22.70;20.50;;;13.90;99.90;;;;;;4956656;28;20177;-64
2021/09/08 05:07:42;;;;;;;21.00;18.90;;;13.80;99.90;;;;;;4956148;28;20169;-64
2021/09/08 05:10:08;;;;;;;22.23;20.00;;;13.80;99.90;;;;;;4980485;28;20195;-64
2021/09/08 05:12:35;;;;;;;28.40;25.60;;;13.90;99.90;;;;;;4994866;28;20267;-64
2021/09/08 05:15:02;;;;;;;23.47;20.97;;;13.90;99.90;;;;;;4984148;28;20448;-64
2021/09/08 05:17:27;;;;;;;26.83;20.97;;;13.90;99.90;;;;;;4975656;28;20430;-64
2021/09/08 05:19:53;;;;;;;24.23;21.73;;;14.00;99.90;;;;;;4974900;28;20459;-64
2021/09/08 05:22:18;;;;;;;22.63;20.20;;;14.10;99.90;;;;;;4975250;28;20180;-64
2021/09/08 05:24:44;;;;;;;23.53;21.03;;;14.10;99.90;;;;;;4974401;28;20223;-64
2021/09/08 05:27:10;;;;;;;26.73;22.03;;;14.20;99.90;;;;;;4974373;28;20696;-64
2021/09/08 05:29:36;;;;;;;24.40;21.87;;;14.20;99.90;;;;;;4974617;28;20527;-64
2021/09/08 05:32:02;;;;;;;22.27;19.97;;;14.30;99.90;;;;;;4975173;28;20168;-64
2021/09/08 05:34:27;;;;;;;23.07;20.63;;;14.30;99.90;;;;;;4975107;28;20172;-64
2021/09/08 05:36:53;;;;;;;25.90;23.20;;;14.50;99.90;;;;;;4974969;28;20549;-64
2021/09/08 05:39:18;;;;;;;24.33;21.90;;;14.60;99.90;;;;;;4974625;28;20283;-64
2021/09/08 05:41:44;;;;;;;26.20;23.63;;;14.70;99.90;;;;;;4973978;28;20176;-64
2021/09/08 05:44:09;;;;;;;26.20;21.90;;;14.70;99.90;;;;;;4974444;28;20188;-64
2021/09/08 05:46:35;;;;;;;22.57;20.27;;;14.90;99.90;;;;;;4974306;28;20681;-64
2021/09/08 05:49:01;;;;;;;24.50;21.30;;;15.00;99.90;;;;;;4973503;28;20199;-63
2021/09/08 05:51:26;;;;;;;24.87;22.20;;;15.00;99.90;;;;;;4976869;28;20179;-64
2021/09/08 05:53:52;;;;;;;24.90;22.23;;;15.10;99.90;;;;;;4994001;28;20176;-64
2021/09/08 05:56:17;;;;;;;25.47;22.87;;;15.30;99.90;;;;;;4985117;28;20176;-65
2021/09/08 05:58:43;;;;;;;22.50;20.13;;;15.40;99.90;;;;;;4974262;28;20196;-64
2021/09/08 06:01:08;;;;;;;24.37;21.80;;;15.50;99.90;;;;;;4974578;28;20261;-64
2021/09/08 06:03:34;;;;;;;24.63;20.80;;;15.60;99.90;;;;;;4974542;28;20229;-64
2021/09/08 06:05:59;;;;;;;23.00;20.63;;;15.70;99.90;;;;;;4974429;28;20266;-64
2021/09/08 06:08:25;;;;;;;19.80;18.00;;;15.80;99.90;;;;;;4977311;28;20267;-65
2021/09/08 06:10:51;;;;;;;22.40;20.00;;;15.90;99.90;;;;;;4974410;28;20176;-65
2021/09/08 06:13:16;;;;;;;22.67;20.40;;;16.10;99.90;;;;;;4974387;28;20173;-63
2021/09/08 06:15:42;;;;;;;21.80;19.60;;;16.10;99.90;;;;;;4974358;28;20231;-63
2021/09/08 06:18:08;;;;;;;22.30;19.87;;;16.10;99.90;;;;;;4973554;28;20231;-63
2021/09/08 06:20:33;;;;;;;22.50;20.30;;;16.20;99.90;;;;;;4974069;28;20267;-63
2021/09/08 06:22:59;;;;;;;21.93;19.90;;;16.40;99.90;;;;;;4974086;28;20662;-63
2021/09/08 06:25:25;;;;;;;23.57;20.00;;;16.60;99.90;;;;;;4974238;28;20215;-63
2021/09/08 06:27:50;;;;;;;26.00;20.63;;;16.70;99.90;;;;;;4973901;28;20227;-63
2021/09/08 06:30:16;;;;;;;21.37;19.20;;;16.90;99.90;;;;;;4972918;28;20670;-63
2021/09/08 06:32:41;;;;;;;21.90;19.77;;;17.10;99.90;;;;;;4973795;28;20164;-64
2021/09/08 06:35:07;;;;;;;19.97;17.93;;;17.50;99.90;;;;;;4974015;28;20537;-63
2021/09/08 06:37:33;;;;;;;20.77;18.67;;;17.80;99.90;;;;;;4973766;28;20219;-63
2021/09/08 06:39:58;;;;;;;20.00;17.97;;;18.10;99.90;;;;;;4973540;28;20444;-63
2021/09/08 06:42:24;;;;;;;20.00;18.00;;;18.30;99.90;;;;;;4973828;28;20172;-63
2021/09/08 06:44:53;;;;;;;19.93;17.60;;;18.60;99.90;;;;;;4973678;28;20661;-63
2021/09/08 06:47:22;;;;;;;21.07;17.90;;;18.80;99.90;;;;;;4973619;28;20200;-63
2021/09/08 06:49:50;;;;;;;21.43;19.53;;;19.00;99.90;;;;;;4973318;28;20547;-63
2021/09/08 06:52:16;;;;;;;22.73;20.23;;;19.10;99.90;;;;;;4973596;28;20455;-63
2021/09/08 06:54:41;;;;;;;19.33;17.27;;;19.30;99.90;;;;;;4973693;28;20790;-63
2021/09/08 06:57:09;;;;;;;21.37;18.23;;;19.30;99.90;;;;;;4973556;28;20423;-63
2021/09/08 06:59:35;;;;;;;20.83;18.67;;;19.50;99.90;;;;;;4973291;28;20571;-63
2021/09/08 07:02:00;;;;;;;22.07;18.40;;;19.70;99.90;;;;;;4973519;28;20428;-63
2021/09/08 07:04:26;;;;;;;19.10;17.30;;;19.90;99.90;;;;;;4973564;28;20551;-63
2021/09/08 07:06:52;;;;;;;22.07;18.53;;;20.20;99.90;;;;;;4973247;28;20210;-63
2021/09/08 07:09:17;;;;;;;19.83;17.93;;;20.50;99.90;;;;;;4971872;28;20440;-63
2021/09/08 07:11:43;;;;;;;18.93;17.13;;;20.50;99.90;;;;;;4973398;28;20198;-63
2021/09/08 07:14:09;;;;;;;18.83;16.83;;;20.70;99.90;;;;;;4972198;28;20226;-63
2021/09/08 07:16:34;;;;;;;18.07;16.50;;;20.80;99.90;;;;;;4973459;28;20180;-64
2021/09/08 07:19:00;;;;;;;16.13;14.50;;;20.90;99.90;;;;;;4972916;28;20644;-64
2021/09/08 07:21:25;;;;;;;16.70;15.10;;;21.10;99.90;;;;;;4973228;28;20238;-64
2021/09/08 07:23:51;;;;;;;13.67;12.40;;;21.30;99.90;;;;;;4973229;28;20180;-65
2021/09/08 07:26:17;;;;;;;12.20;11.10;;;21.70;99.90;;;;;;4973131;28;20204;-65
2021/09/08 07:28:42;;;;;;;11.90;10.83;;;22.00;99.90;;;;;;4971608;28;20196;-62
2021/09/08 07:31:08;;;;;;;12.10;11.10;;;22.30;99.90;;;;;;4980785;28;20263;-62
2021/09/08 07:33:33;;;;;;;11.50;10.50;;;22.50;99.90;;;;;;4981621;28;20261;-62
2021/09/08 07:35:59;;;;;;;11.60;10.50;;;22.70;99.90;;;;;;4982342;28;20215;-62
2021/09/08 07:38:26;;;;;;;15.43;13.80;;;22.90;99.90;;;;;;4978019;28;20202;-62
2021/09/08 07:40:52;;;;;;;13.63;12.20;;;23.10;99.90;;;;;;4973111;28;20239;-63
2021/09/08 07:43:20;;;;;;;12.73;11.50;;;23.50;99.90;;;;;;4973090;28;20921;-63
2021/09/08 07:45:47;;;;;;;11.00;9.90;;;23.90;99.90;;;;;;4972959;28;20983;-66
2021/09/08 07:48:13;;;;;;;11.27;10.00;;;24.20;99.10;;;;;;4971522;28;20530;-62
2021/09/08 07:50:38;;;;;;;10.83;9.73;;;24.00;98.30;;;;;;4972862;28;20510;-63
2021/09/08 07:53:08;;;;;;;10.30;9.40;;;24.00;97.90;;;;;;4973008;28;20235;-63
2021/09/08 07:55:35;;;;;;;11.27;10.27;;;24.20;97.40;;;;;;4972891;28;20191;-64
2021/09/08 07:58:01;;;;;;;10.60;9.60;;;24.40;96.60;;;;;;4967977;28;20807;-63
2021/09/08 08:00:26;;;;;;;11.17;10.27;;;24.10;95.50;;;;;;4940845;28;20513;-63
2021/09/08 08:02:52;;;;;;;11.90;10.70;;;23.80;95.60;;;;;;4967049;28;20176;-62
2021/09/08 08:05:19;;;;;;;10.30;9.30;;;23.80;96.40;;;;;;4974002;28;20180;-63
2021/09/08 08:07:46;;;;;;;11.63;10.50;;;24.00;95.60;;;;;;4976580;28;20238;-62
2021/09/08 08:10:12;;;;;;;11.47;10.27;;;24.00;95.30;;;;;;4972639;28;20420;-63
2021/09/08 08:12:38;;;;;;;11.53;10.47;;;24.00;95.20;;;;;;4976639;28;20474;-62
2021/09/08 08:15:05;;;;;;;10.57;9.60;;;24.00;94.40;;;;;;4976545;28;20424;-63
2021/09/08 08:17:31;;;;;;;10.50;9.60;;;24.30;94.50;;;;;;4976341;28;20191;-63
2021/09/08 08:19:56;;;;;;;10.60;9.60;;;24.70;94.20;;;;;;4972273;28;20471;-62
2021/09/08 08:22:22;;;;;;;11.20;10.10;;;25.00;93.40;;;;;;4976395;28;20545;-63
2021/09/08 08:24:48;;;;;;;10.30;9.33;;;25.40;93.10;;;;;;4976319;28;20689;-62
2021/09/08 08:27:14;;;;;;;10.77;9.77;;;25.70;91.40;;;;;;4976260;28;20470;-62
2021/09/08 08:29:39;;;;;;;10.70;9.60;;;25.60;90.90;;;;;;4972482;28;20219;-62
2021/09/08 08:32:05;;;;;;;10.50;9.50;;;25.40;91.70;;;;;;4976136;28;20545;-63
2021/09/08 08:34:31;;;;;;;10.33;9.30;;;25.50;90.60;;;;;;4976232;28;20176;-63
2021/09/08 08:36:56;;;;;;;9.60;8.90;;;25.80;91.00;;;;;;4976275;28;20180;-63
2021/09/08 08:39:22;;;;;;;11.03;9.90;;;26.10;90.20;;;;;;4975504;28;20203;-63
2021/09/08 08:41:48;;;;;;;10.07;9.00;;;26.30;88.90;;;;;;4976072;28;20529;-63
2021/09/08 08:44:18;;;;;;;9.83;8.93;;;26.50;89.10;;;;;;4975831;28;20708;-63
2021/09/08 08:46:44;;;;;;;10.90;9.07;;;26.70;85.60;;;;;;4975640;28;20239;-62
2021/09/08 08:49:09;;;;;;;10.17;9.23;;;26.50;84.70;;;;;;4975356;28;20455;-63
2021/09/08 08:51:35;;;;;;;10.80;9.80;;;26.80;84.90;;;;;;4974598;28;20241;-62
2021/09/08 08:54:01;;;;;;;10.60;9.60;;;27.30;84.80;;;;;;4976086;28;20176;-62
2021/09/08 08:56:26;;;;;;;10.00;8.87;;;27.60;83.60;;;;;;4990701;28;20184;-62
2021/09/08 08:58:53;;;;;;;10.57;9.57;;;27.50;80.60;;;;;;4975224;28;20243;-62
2021/09/08 09:01:25;;;;;;;12.73;10.63;;;27.30;80.60;;;;;;4975478;28;20654;-62
2021/09/08 09:04:08;;;;;;;12.33;10.93;;;27.90;81.40;;;;;;4975807;28;20427;-62
2021/09/08 09:06:38;;;;;;;9.70;8.90;;;28.70;78.90;;;;;;4975467;28;20463;-63
2021/09/08 09:09:17;;;;;;;11.20;10.20;;;29.10;78.00;;;;;;4975556;28;20944;-63
2021/09/08 09:11:48;;;;;;;9.53;8.70;;;29.20;74.40;;;;;;4972284;28;21094;-63
2021/09/08 09:14:15;;;;;;;9.17;8.47;;;29.50;74.40;;;;;;4972308;28;20454;-63
2021/09/08 09:16:42;;;;;;;11.00;10.07;;;29.90;71.60;;;;;;4970830;28;20447;-63
2021/09/08 09:19:12;;;;;;;10.13;9.23;;;29.80;71.10;;;;;;4971501;28;20979;-63
2021/09/08 09:21:39;;;;;;;10.47;9.43;;;30.00;70.10;;;;;;4977085;28;20435;-63
2021/09/08 09:24:08;;;;;;;10.27;9.30;;;30.30;69.60;;;;;;4986802;28;20427;-63
2021/09/08 09:26:44;;;;;;;10.47;9.67;;;30.70;68.30;;;;;;4970784;28;21054;-63
2021/09/08 09:29:13;;;;;;;9.30;8.50;;;31.60;65.10;;;;;;4971747;28;20467;-63
2021/09/08 09:31:59;;;;;;;10.40;9.60;;;32.00;63.20;;;;;;4971541;28;20994;-63
2021/09/08 09:34:28;;;;;;;10.63;9.73;;;32.70;60.20;;;;;;4971924;28;20507;-63
2021/09/08 09:36:56;;;;;;;10.17;9.27;;;32.50;59.30;;;;;;4971913;28;20914;-63
2021/09/08 09:39:27;;;;;;;10.50;9.70;;;32.60;58.80;;;;;;4971289;28;20546;-63
2021/09/08 09:41:52;;;;;;;13.97;12.60;;;33.10;58.40;;;;;;4971793;28;20436;-63
2021/09/08 09:44:18;;;;;;;10.60;9.70;;;33.50;57.10;;;;;;4971672;28;20427;-63
2021/09/08 09:46:45;;;;;;;10.57;9.50;;;33.60;55.90;;;;;;4971412;28;20208;-63
2021/09/08 09:49:12;;;;;;;12.03;11.03;;;33.20;56.30;;;;;;4969631;28;20685;-63
2021/09/08 09:51:38;;;;;;;11.10;10.20;;;34.20;55.70;;;;;;4970081;28;20450;-63
2021/09/08 09:54:03;;;;;;;11.27;10.23;;;34.70;54.00;;;;;;4971437;28;20817;-64
2021/09/08 09:56:29;;;;;;;10.87;9.93;;;34.60;53.60;;;;;;4971314;28;20187;-65
2021/09/08 09:58:55;;;;;;;9.93;9.20;;;35.20;52.30;;;;;;4971046;28;20200;-65
2021/09/08 10:01:21;;;;;;;10.97;9.97;;;35.90;51.10;;;;;;4970025;28;20801;-66
2021/09/08 10:03:47;;;;;;;11.10;10.30;;;36.30;50.50;;;;;;4971457;28;20184;-64
2021/09/08 10:06:14;;;;;;;11.07;10.17;;;35.90;50.00;;;;;;4971754;28;20474;-66
2021/09/08 10:08:49;;;;;;;10.37;9.47;;;35.90;50.60;;;;;;4973447;28;20439;-65
2021/09/08 10:11:20;;;;;;;10.10;9.30;;;36.20;49.20;;;;;;4974390;28;20799;-66
2021/09/08 10:13:51;;;;;;;9.87;9.07;;;36.70;48.20;;;;;;4974350;28;20531;-63
2021/09/08 10:16:18;;;;;;;10.50;9.70;;;36.40;48.10;;;;;;4974024;28;20807;-63
2021/09/08 10:18:47;;;;;;;10.57;9.87;;;36.30;48.40;;;;;;4974002;28;20509;-63
2021/09/08 10:21:15;;;;;;;10.30;9.40;;;36.50;47.70;;;;;;4974002;28;20893;-63
2021/09/08 10:23:55;;;;;;;9.87;8.90;;;36.80;47.40;;;;;;4973713;28;20858;-63
2021/09/08 10:26:28;;;;;;;9.20;8.60;;;36.90;46.60;;;;;;4973155;28;20467;-64
2021/09/08 10:29:04;;;;;;;10.27;9.50;;;37.20;46.80;;;;;;4972476;28;20450;-63
2021/09/08 10:31:30;;;;;;;10.20;9.40;;;37.10;46.00;;;;;;4973254;28;20419;-63
2021/09/08 10:33:57;;;;;;;10.53;9.83;;;36.30;46.80;;;;;;4973334;28;20416;-63
2021/09/08 10:36:23;;;;;;;10.77;9.77;;;36.60;47.30;;;;;;4973268;28;20527;-64
2021/09/08 10:39:09;;;;;;;10.23;9.30;;;37.50;46.20;;;;;;4972783;28;20996;-63
2021/09/08 10:41:43;;;;;;;10.37;9.67;;;38.70;45.10;;;;;;4973432;28;20423;-64
2021/09/08 10:44:11;;;;;;;10.03;9.27;;;39.20;43.90;;;;;;4973183;28;20415;-62
2021/09/08 10:46:55;;;;;;;9.50;8.20;;;39.70;42.80;;;;;;4972898;28;20466;-63
2021/09/08 10:49:39;;;;;;;9.23;8.63;;;40.00;42.50;;;;;;4972452;28;20452;-64
2021/09/08 10:52:05;;;;;;;9.60;8.80;;;40.10;41.60;;;;;;4972895;28;20427;-64
2021/09/08 10:54:31;;;;;;;8.97;8.33;;;39.90;40.80;;;;;;4972928;28;20439;-64
2021/09/08 10:56:58;;;;;;;10.43;9.73;;;39.70;40.80;;;;;;4972930;28;20426;-63
2021/09/08 10:59:24;;;;;;;10.83;10.13;;;40.50;40.40;;;;;;4971162;28;20474;-63
2021/09/08 11:01:53;;;;;;;9.57;8.67;;;41.00;40.00;;;;;;4972692;28;20531;-63
2021/09/08 11:04:18;;;;;;;10.00;9.20;;;41.00;39.20;;;;;;4972630;28;20175;-64
2021/09/08 11:06:46;;;;;;;8.80;8.20;;;40.30;39.80;;;;;;4972550;28;20463;-63
2021/09/08 11:09:14;;;;;;;9.83;9.23;;;41.00;39.40;;;;;;4972332;28;20192;-63
2021/09/08 11:11:57;;;;;;;9.87;8.87;;;40.70;38.80;;;;;;4972603;28;20439;-63
2021/09/08 11:14:49;;;;;;;9.97;9.27;;;41.30;38.50;;;;;;4972649;28;21012;-64
2021/09/08 11:17:26;;;;;;;9.70;8.90;;;40.00;39.20;;;;;;4972371;28;20419;-63
2021/09/08 11:19:57;;;;;;;9.57;8.80;;;40.40;39.20;;;;;;4937545;28;1022651;-63
2021/09/08 11:22:23;;;;;;;9.30;8.40;;;41.30;38.10;;;;;;4973300;28;20515;-63
2021/09/08 11:25:04;;;;;;;9.53;8.93;;;40.50;38.20;;;;;;4973274;28;20437;-63
2021/09/08 11:27:29;;;;;;;9.43;8.63;;;39.10;38.60;;;;;;4973423;28;20858;-63
2021/09/08 11:30:06;;;;;;;9.83;9.03;;;38.50;39.60;;;;;;4972877;28;20454;-62
2021/09/08 11:32:51;;;;;;;9.73;8.93;;;40.30;38.80;;;;;;4972990;28;20185;-63
2021/09/08 11:35:35;;;;;;;9.73;8.83;;;40.90;37.70;;;;;;4973177;28;20411;-63
2021/09/08 11:38:07;;;;;;;9.87;9.17;;;39.80;37.90;;;;;;4973023;28;20411;-63
2021/09/08 11:40:33;;;;;;;9.87;9.13;;;38.80;39.60;;;;;;4974495;28;20419;-63
2021/09/08 11:42:59;;;;;;;10.40;9.67;;;39.00;38.70;;;;;;4992046;28;20478;-63
2021/09/08 11:45:29;;;;;;;9.73;9.13;;;40.70;38.70;;;;;;4977001;28;20789;-63
2021/09/08 11:47:55;;;;;;;9.00;8.37;;;42.10;36.90;;;;;;4976779;28;20180;-63
2021/09/08 11:50:20;;;;;;;9.00;8.43;;;42.10;36.60;;;;;;4976429;28;21000;-63
2021/09/08 11:52:55;;;;;;;8.50;8.00;;;42.20;36.60;;;;;;4976999;28;20176;-64
2021/09/08 11:55:38;;;;;;;9.27;8.67;;;43.10;36.20;;;;;;4976971;28;20172;-63
2021/09/08 11:58:18;;;;;;;8.40;7.90;;;43.00;35.30;;;;;;4976794;28;20482;-63
2021/09/08 12:01:13;;;;;;;10.27;9.30;;;42.90;34.60;;;;;;4976411;28;20933;-63
2021/09/08 12:03:59;;;;;;;9.03;8.23;;;42.40;35.00;;;;;;4968018;28;20439;-63
2021/09/08 12:06:29;;;;;;;8.20;7.40;;;43.00;34.70;;;;;;4976686;28;20979;-63
2021/09/08 12:09:11;;;;;;;8.30;7.70;;;43.10;34.50;;;;;;4976046;28;20573;-63
2021/09/08 12:11:41;;;;;;;8.60;7.87;;;42.30;34.40;;;;;;4976611;28;20430;-63
2021/09/08 12:14:15;;;;;;;8.87;8.10;;;43.30;34.00;;;;;;4976694;28;20733;-63
2021/09/08 12:16:41;;;;;;;8.00;7.50;;;43.90;33.50;;;;;;4977063;28;20415;-63
2021/09/08 12:19:15;;;;;;;8.03;7.57;;;45.30;33.20;;;;;;4976314;28;20554;-63
2021/09/08 12:21:42;;;;;;;9.03;8.43;;;45.30;31.50;;;;;;4976553;28;20176;-63
2021/09/08 12:24:28;;;;;;;8.07;7.57;;;42.40;32.80;;;;;;4976519;28;20790;-64
2021/09/08 12:26:56;;;;;;;8.73;8.00;;;41.20;34.30;;;;;;4976265;28;20465;-64
2021/09/08 12:29:22;;;;;;;8.10;7.60;;;39.20;35.40;;;;;;4975941;28;20435;-64
2021/09/08 12:31:55;;;;;;;8.53;7.67;;;40.10;35.70;;;;;;4974797;28;20431;-64